Time;durP1;ratioP1;P1;durP2;ratioP2;P2;SDS_P1;SDS_P2;PMS_P1;PMS_P2;Temp;Humidity;BMP_temperature;BMP_pressure;BME280_temperature;BME280_humidity;BME280_pressure;Samples;Min_cycle;Max_cycle;Signal;HPM_P1;HPM_P2
2023/08/26 00:01:50;;;;;;;16.50;13.17;;;16.40;99.90;;;;;;5114519;28;20498;-77
2023/08/26 00:04:16;;;;;;;20.55;13.57;;;16.50;99.90;;;;;;5094772;28;20416;-77
2023/08/26 00:06:42;;;;;;;17.42;13.45;;;16.40;99.90;;;;;;5112570;28;20477;-77
2023/08/26 00:09:07;;;;;;;17.00;12.40;;;16.60;99.90;;;;;;5097463;28;20403;-76
2023/08/26 00:11:33;;;;;;;17.40;12.53;;;16.50;99.90;;;;;;5096242;28;20420;-77
2023/08/26 00:13:59;;;;;;;17.35;11.93;;;16.40;99.90;;;;;;5113708;28;21042;-77
2023/08/26 00:16:24;;;;;;;16.63;12.48;;;16.70;99.90;;;;;;5113879;28;20405;-76
2023/08/26 00:18:50;;;;;;;16.70;12.60;;;16.30;99.90;;;;;;5111326;27;20422;-78
2023/08/26 00:21:20;;;;;;;17.00;12.10;;;16.30;99.90;;;;;;5085056;28;20465;-77
2023/08/26 00:23:47;;;;;;;16.35;12.07;;;16.10;99.90;;;;;;5109626;28;20405;-77
2023/08/26 00:26:12;;;;;;;16.77;11.77;;;16.30;99.90;;;;;;5126650;27;20398;-77
2023/08/26 00:28:38;;;;;;;17.77;12.15;;;16.10;99.90;;;;;;5093264;28;20439;-76
2023/08/26 00:31:04;;;;;;;14.18;11.27;;;16.30;99.90;;;;;;5095998;28;20423;-78
2023/08/26 00:33:29;;;;;;;17.17;12.20;;;16.10;99.90;;;;;;5096102;28;20396;-78
2023/08/26 00:35:55;;;;;;;15.50;11.60;;;15.80;99.90;;;;;;5095890;28;20397;-78
2023/08/26 00:38:21;;;;;;;15.97;11.50;;;15.90;99.90;;;;;;5078770;28;20557;-77
2023/08/26 00:40:47;;;;;;;14.47;10.93;;;15.70;99.90;;;;;;5112190;28;20423;-78
2023/08/26 00:43:13;;;;;;;15.20;11.37;;;15.70;99.90;;;;;;5079747;28;20420;-78
2023/08/26 00:45:42;;;;;;;16.92;11.23;;;15.90;99.90;;;;;;5114762;28;20419;-76
2023/08/26 00:48:11;;;;;;;14.25;10.95;;;15.70;99.90;;;;;;5096244;28;20478;-77
2023/08/26 00:50:38;;;;;;;16.58;10.25;;;16.00;99.90;;;;;;5113104;28;20400;-77
2023/08/26 00:53:03;;;;;;;15.00;10.77;;;15.90;99.90;;;;;;5095828;28;20434;-77
2023/08/26 00:55:30;;;;;;;13.27;10.60;;;15.90;99.90;;;;;;5080591;28;20422;-77
2023/08/26 00:57:56;;;;;;;14.90;10.70;;;15.80;99.90;;;;;;5126214;27;20476;-77
2023/08/26 01:00:22;;;;;;;16.07;11.00;;;15.90;99.90;;;;;;5110859;27;20417;-77
2023/08/26 01:02:49;;;;;;;15.45;10.77;;;15.80;99.90;;;;;;5092664;28;20429;-78
2023/08/26 01:05:15;;;;;;;17.03;11.53;;;15.50;99.90;;;;;;5135384;27;20411;-78
2023/08/26 01:07:41;;;;;;;17.08;11.38;;;15.70;99.90;;;;;;5095386;28;20385;-78
2023/08/26 01:10:08;;;;;;;15.40;11.40;;;15.80;99.90;;;;;;5093208;28;20946;-78
2023/08/26 01:12:46;;;;;;;13.60;10.90;;;15.70;99.90;;;;;;5109778;28;20936;-77
2023/08/26 01:15:13;;;;;;;14.98;11.20;;;15.40;99.90;;;;;;5126601;27;20742;-78
2023/08/26 01:17:40;;;;;;;13.82;10.63;;;15.40;99.90;;;;;;5109509;28;20401;-77
2023/08/26 01:20:08;;;;;;;14.45;10.80;;;15.70;99.90;;;;;;5126717;27;20893;-77
2023/08/26 01:22:36;;;;;;;16.77;11.52;;;15.40;99.90;;;;;;5111751;28;20764;-77
2023/08/26 01:25:02;;;;;;;15.82;11.23;;;15.50;99.90;;;;;;5112995;28;20396;-77
2023/08/26 01:27:28;;;;;;;15.15;10.35;;;15.40;99.90;;;;;;5093814;28;20423;-77
2023/08/26 01:29:56;;;;;;;17.00;11.10;;;15.50;99.90;;;;;;5112307;28;20404;-78
2023/08/26 01:32:29;;;;;;;15.07;11.05;;;15.10;99.90;;;;;;5095897;28;20491;-76
2023/08/26 01:34:57;;;;;;;14.30;11.07;;;15.40;99.90;;;;;;5146328;27;20484;-77
2023/08/26 01:37:28;;;;;;;14.32;11.05;;;15.50;99.90;;;;;;5094400;28;20392;-77
2023/08/26 01:39:57;;;;;;;17.38;11.90;;;15.30;99.90;;;;;;5107128;28;20493;-78
2023/08/26 01:42:24;;;;;;;14.15;11.23;;;15.20;99.90;;;;;;5146629;27;20814;-77
2023/08/26 01:44:50;;;;;;;16.20;11.82;;;15.00;99.90;;;;;;5112683;28;20389;-77
2023/08/26 01:47:16;;;;;;;14.63;11.25;;;15.20;99.90;;;;;;5095100;28;20465;-77
2023/08/26 01:49:43;;;;;;;17.00;11.93;;;15.10;99.90;;;;;;5095353;28;20400;-77
2023/08/26 01:52:10;;;;;;;23.38;12.05;;;15.20;99.90;;;;;;5112684;28;20399;-76
2023/08/26 01:54:35;;;;;;;17.13;11.43;;;15.00;99.90;;;;;;5077030;28;20417;-76
2023/08/26 01:57:01;;;;;;;14.57;10.90;;;14.80;99.90;;;;;;5091896;28;20727;-77
2023/08/26 01:59:27;;;;;;;15.60;11.57;;;14.90;99.90;;;;;;5091820;28;20439;-77
2023/08/26 02:01:53;;;;;;;17.35;11.68;;;15.00;99.90;;;;;;5058572;28;20525;-78
2023/08/26 02:04:19;;;;;;;15.73;11.35;;;14.80;99.90;;;;;;5092401;28;20458;-75
2023/08/26 02:06:45;;;;;;;15.75;11.15;;;14.80;99.90;;;;;;5074752;28;20503;-77
2023/08/26 02:09:11;;;;;;;17.33;11.32;;;14.80;99.90;;;;;;5073332;28;20935;-78
2023/08/26 02:11:37;;;;;;;14.80;10.88;;;14.80;99.90;;;;;;5091919;28;20398;-78
2023/08/26 02:14:03;;;;;;;15.73;10.80;;;14.90;99.90;;;;;;5091802;28;20402;-78
2023/08/26 02:16:28;;;;;;;14.40;10.60;;;14.90;99.90;;;;;;5091849;28;20402;-78
2023/08/26 02:18:54;;;;;;;14.00;10.23;;;14.70;99.90;;;;;;5073861;28;20732;-78
2023/08/26 02:21:20;;;;;;;14.63;10.13;;;14.80;99.90;;;;;;5074174;28;20401;-78
2023/08/26 02:23:45;;;;;;;14.45;9.63;;;14.70;99.90;;;;;;5109819;28;20745;-78
2023/08/26 02:26:12;;;;;;;13.73;9.55;;;14.50;99.90;;;;;;5077749;28;20751;-78
2023/08/26 02:28:37;;;;;;;13.90;10.07;;;14.60;99.90;;;;;;5112072;28;20400;-78
2023/08/26 02:31:03;;;;;;;14.93;10.23;;;14.70;99.90;;;;;;5094154;28;20419;-78
2023/08/26 02:33:30;;;;;;;13.60;9.25;;;14.70;99.90;;;;;;5094512;28;20428;-78
2023/08/26 02:35:55;;;;;;;14.17;10.07;;;14.70;99.90;;;;;;5087778;28;21091;-78
2023/08/26 02:38:21;;;;;;;17.60;9.90;;;14.60;99.90;;;;;;5074365;28;20485;-78
2023/08/26 02:40:54;;;;;;;14.07;9.95;;;14.60;99.90;;;;;;5076164;28;20416;-78
2023/08/26 02:43:21;;;;;;;14.82;10.05;;;14.50;99.90;;;;;;5093786;28;20479;-77
2023/08/26 02:45:52;;;;;;;14.75;9.85;;;14.60;99.90;;;;;;5093620;28;20398;-78
2023/08/26 02:48:17;;;;;;;15.20;9.98;;;14.50;99.90;;;;;;5095897;28;20398;-78
2023/08/26 02:50:43;;;;;;;14.88;9.95;;;14.50;99.90;;;;;;5079817;28;20458;-76
2023/08/26 02:53:08;;;;;;;13.00;9.83;;;14.50;99.90;;;;;;5078778;28;20482;-78
2023/08/26 02:55:34;;;;;;;15.93;10.50;;;14.50;99.90;;;;;;5080050;28;20414;-78
2023/08/26 02:58:00;;;;;;;15.95;11.07;;;14.40;99.90;;;;;;5094955;28;20860;-77
2023/08/26 03:00:25;;;;;;;20.27;11.77;;;14.30;99.90;;;;;;5061529;28;20406;-77
2023/08/26 03:02:51;;;;;;;15.02;11.45;;;14.20;99.90;;;;;;5099386;28;20420;-77
2023/08/26 03:05:17;;;;;;;15.13;11.40;;;14.00;99.90;;;;;;5098942;28;20449;-78
2023/08/26 03:07:42;;;;;;;18.60;12.30;;;14.10;99.90;;;;;;5115720;28;20822;-78
2023/08/26 03:10:08;;;;;;;15.70;12.00;;;14.10;99.90;;;;;;5098917;28;20403;-77
2023/08/26 03:12:34;;;;;;;17.00;12.25;;;14.30;99.90;;;;;;5115004;28;20964;-77
2023/08/26 03:15:00;;;;;;;14.75;11.50;;;14.20;99.90;;;;;;5115301;28;20422;-77
2023/08/26 03:17:26;;;;;;;15.50;11.90;;;14.10;99.90;;;;;;5148127;27;20428;-78
2023/08/26 03:19:52;;;;;;;15.38;11.63;;;14.10;99.90;;;;;;5093922;28;20435;-77
2023/08/26 03:22:17;;;;;;;16.13;11.30;;;14.10;99.90;;;;;;5077026;28;20425;-78
2023/08/26 03:24:43;;;;;;;15.25;10.60;;;14.30;99.90;;;;;;5095206;28;20394;-78
2023/08/26 03:27:09;;;;;;;15.33;11.30;;;;;;;;;;5078315;28;20405;-78
2023/08/26 03:29:35;;;;;;;16.30;11.25;;;14.20;99.90;;;;;;5111337;28;20410;-78
2023/08/26 03:32:01;;;;;;;14.60;10.35;;;14.40;99.90;;;;;;5110692;27;20460;-78
2023/08/26 03:34:26;;;;;;;13.05;10.35;;;14.30;99.90;;;;;;5077725;28;20441;-78
2023/08/26 03:36:52;;;;;;;14.40;10.40;;;14.30;99.90;;;;;;5094474;28;20489;-77
2023/08/26 03:39:18;;;;;;;14.43;9.73;;;14.50;99.90;;;;;;5077527;28;20401;-78
2023/08/26 03:41:43;;;;;;;13.45;9.93;;;14.50;99.90;;;;;;5093867;28;20421;-78
2023/08/26 03:44:09;;;;;;;13.18;9.45;;;14.50;99.90;;;;;;5093533;28;20457;-77
2023/08/26 03:46:35;;;;;;;13.80;9.50;;;14.40;99.90;;;;;;5125659;27;20465;-77
2023/08/26 03:49:00;;;;;;;11.80;8.83;;;14.50;99.90;;;;;;5097891;28;20393;-78
2023/08/26 03:51:26;;;;;;;11.67;9.13;;;14.60;99.90;;;;;;5080991;28;20786;-77
2023/08/26 03:53:52;;;;;;;12.75;8.65;;;14.70;99.90;;;;;;5114486;28;20760;-77
2023/08/26 03:56:17;;;;;;;12.88;8.48;;;14.80;99.90;;;;;;5114379;28;20396;-78
2023/08/26 03:58:44;;;;;;;11.37;8.60;;;;;;;;;;5110910;28;20415;-78
2023/08/26 04:01:09;;;;;;;11.45;8.48;;;14.50;99.90;;;;;;5095950;28;20496;-78
2023/08/26 04:03:35;;;;;;;14.25;7.80;;;14.60;99.90;;;;;;5097693;28;20887;-77
2023/08/26 04:06:03;;;;;;;11.80;7.80;;;14.80;99.90;;;;;;5080518;28;20393;-77
2023/08/26 04:08:30;;;;;;;11.98;7.82;;;14.60;99.90;;;;;;5079248;28;20396;-77
2023/08/26 04:10:57;;;;;;;14.07;7.50;;;14.50;99.90;;;;;;5097081;28;20423;-77
2023/08/26 04:13:27;;;;;;;11.90;7.47;;;14.60;99.90;;;;;;5095775;28;20907;-77
2023/08/26 04:15:56;;;;;;;9.43;7.10;;;14.40;99.90;;;;;;5097583;28;20408;-77
2023/08/26 04:18:22;;;;;;;12.13;7.13;;;14.70;99.90;;;;;;5097112;28;20407;-77
2023/08/26 04:20:48;;;;;;;12.73;7.40;;;14.50;99.90;;;;;;5096837;28;20808;-78
2023/08/26 04:23:14;;;;;;;9.60;6.57;;;14.60;99.90;;;;;;5096927;28;20416;-76
2023/08/26 04:25:41;;;;;;;12.55;6.82;;;14.50;99.90;;;;;;5096307;28;20542;-77
2023/08/26 04:28:08;;;;;;;11.60;6.93;;;14.70;99.90;;;;;;5114084;28;20389;-77
2023/08/26 04:30:34;;;;;;;11.02;6.43;;;14.70;99.90;;;;;;5101302;28;20457;-77
2023/08/26 04:33:06;;;;;;;8.40;6.28;;;14.70;99.90;;;;;;5076452;28;20402;-76
2023/08/26 04:35:33;;;;;;;10.65;6.50;;;14.70;99.90;;;;;;5060667;28;20401;-78
2023/08/26 04:38:00;;;;;;;7.97;5.93;;;14.70;99.90;;;;;;5076572;28;20402;-78
2023/08/26 04:40:26;;;;;;;10.88;6.15;;;14.80;99.90;;;;;;5076212;28;20489;-78
2023/08/26 04:42:54;;;;;;;9.65;6.07;;;14.90;99.90;;;;;;5093312;28;20501;-78
2023/08/26 04:45:21;;;;;;;9.85;6.25;;;14.80;99.90;;;;;;5142335;27;20905;-78
2023/08/26 04:47:46;;;;;;;8.85;6.20;;;14.70;99.90;;;;;;5113647;28;20951;-78
2023/08/26 04:50:12;;;;;;;10.38;6.20;;;14.70;99.90;;;;;;5113479;28;20424;-78
2023/08/26 04:52:40;;;;;;;11.82;6.65;;;15.00;99.90;;;;;;5113747;28;20431;-79
2023/08/26 04:55:10;;;;;;;10.73;6.38;;;14.60;99.90;;;;;;5096806;28;20448;-78
2023/08/26 04:57:36;;;;;;;11.18;6.03;;;14.80;99.90;;;;;;5092934;28;20422;-79
2023/08/26 05:00:10;;;;;;;10.77;6.38;;;14.90;99.90;;;;;;5133882;27;20416;-78
2023/08/26 05:02:37;;;;;;;8.47;6.40;;;14.80;99.90;;;;;;5078696;28;20418;-84
2023/08/26 05:05:03;;;;;;;9.35;7.45;;;14.70;99.90;;;;;;5094731;28;20394;-85
2023/08/26 05:07:29;;;;;;;10.63;7.35;;;14.70;99.90;;;;;;5076947;28;20394;-85
2023/08/26 05:09:54;;;;;;;10.93;7.07;;;14.70;99.90;;;;;;5092786;28;20409;-84
2023/08/26 05:12:21;;;;;;;8.63;6.83;;;14.60;99.90;;;;;;5085349;28;20484;-82
2023/08/26 05:14:47;;;;;;;9.43;6.40;;;14.60;99.90;;;;;;5114346;28;20400;-83
2023/08/26 05:17:13;;;;;;;12.07;6.90;;;14.90;99.90;;;;;;5081546;28;20400;-83
2023/08/26 05:19:38;;;;;;;10.13;6.75;;;14.60;99.90;;;;;;5080789;28;20400;-84
2023/08/26 05:22:04;;;;;;;10.93;6.72;;;14.70;99.90;;;;;;5080555;28;20420;-83
2023/08/26 05:24:30;;;;;;;9.47;6.50;;;14.80;99.90;;;;;;5114884;28;20397;-83
2023/08/26 05:26:57;;;;;;;8.65;5.43;;;14.80;99.90;;;;;;5113269;28;20412;-83
2023/08/26 05:29:23;;;;;;;9.20;5.35;;;14.70;99.90;;;;;;5113647;28;20407;-84
2023/08/26 05:31:48;;;;;;;9.45;5.30;;;15.00;99.90;;;;;;5096572;28;20408;-84
2023/08/26 05:34:14;;;;;;;6.37;4.60;;;14.80;99.90;;;;;;5112672;28;20503;-83
2023/08/26 05:36:40;;;;;;;7.40;4.10;;;14.90;99.90;;;;;;5098027;28;20411;-84
2023/08/26 05:39:06;;;;;;;5.95;3.70;;;14.90;99.90;;;;;;5116738;28;20435;-84
2023/08/26 05:41:31;;;;;;;7.10;3.95;;;14.90;99.90;;;;;;5095095;28;20889;-84
2023/08/26 05:43:57;;;;;;;4.57;3.33;;;14.90;99.90;;;;;;5114886;28;20397;-83
2023/08/26 05:46:23;;;;;;;5.60;3.65;;;14.90;99.90;;;;;;5115421;28;20393;-84
2023/08/26 05:48:48;;;;;;;6.30;3.70;;;14.80;99.90;;;;;;5114846;28;20400;-84
2023/08/26 05:51:14;;;;;;;10.00;3.60;;;;;;;;;;5114294;28;20412;-83
2023/08/26 05:53:40;;;;;;;5.77;2.93;;;14.80;99.90;;;;;;5110541;28;20413;-84
2023/08/26 05:56:06;;;;;;;6.43;3.10;;;14.80;99.90;;;;;;5095368;28;20429;-84
2023/08/26 05:58:32;;;;;;;4.33;2.97;;;15.00;99.90;;;;;;5060843;28;20484;-83
2023/08/26 06:00:58;;;;;;;5.50;3.30;;;;;;;;;;5118916;28;20410;-84
2023/08/26 06:03:23;;;;;;;4.93;3.25;;;15.10;99.90;;;;;;5096380;28;20482;-83
2023/08/26 06:05:49;;;;;;;6.43;3.60;;;14.70;99.90;;;;;;5113962;28;20809;-84
2023/08/26 06:08:15;;;;;;;5.55;3.80;;;15.00;99.90;;;;;;5111490;28;20398;-84
2023/08/26 06:10:41;;;;;;;5.47;3.60;;;14.90;99.90;;;;;;5110985;28;20398;-84
2023/08/26 06:13:06;;;;;;;5.35;3.75;;;14.80;99.90;;;;;;5110680;28;20394;-84
2023/08/26 06:15:32;;;;;;;6.93;4.20;;;15.10;99.90;;;;;;5076293;28;20422;-85
2023/08/26 06:17:59;;;;;;;5.00;4.03;;;14.90;99.90;;;;;;5112066;28;20439;-83
2023/08/26 06:20:26;;;;;;;6.53;3.92;;;14.90;99.90;;;;;;5081266;28;20418;-84
2023/08/26 06:22:52;;;;;;;5.45;4.10;;;14.90;99.90;;;;;;5128924;27;20830;-84
2023/08/26 06:25:17;;;;;;;6.87;4.20;;;15.10;99.90;;;;;;5097483;28;20402;-84
2023/08/26 06:27:43;;;;;;;6.03;3.93;;;15.10;99.90;;;;;;5097819;28;20942;-84
2023/08/26 06:30:09;;;;;;;5.27;3.70;;;15.00;99.90;;;;;;5123048;27;20507;-82
2023/08/26 06:32:35;;;;;;;4.60;3.50;;;15.10;99.90;;;;;;5118884;28;20930;-85
2023/08/26 06:35:01;;;;;;;6.93;3.90;;;15.00;99.90;;;;;;5119025;28;20404;-84
2023/08/26 06:37:26;;;;;;;4.73;3.47;;;15.00;99.90;;;;;;5102272;28;20434;-83
2023/08/26 06:39:52;;;;;;;5.53;3.80;;;15.10;99.90;;;;;;5114626;28;20446;-84
2023/08/26 06:42:18;;;;;;;5.45;4.30;;;15.20;99.90;;;;;;5095435;28;20457;-78
2023/08/26 06:44:44;;;;;;;5.45;4.10;;;15.10;99.90;;;;;;5095610;28;20750;-78
2023/08/26 06:47:10;;;;;;;6.30;4.57;;;15.30;99.90;;;;;;5079049;28;20402;-77
2023/08/26 06:49:36;;;;;;;6.47;4.90;;;15.30;99.90;;;;;;5095759;28;20401;-78
2023/08/26 06:52:02;;;;;;;11.95;5.13;;;15.20;99.90;;;;;;5095568;28;20488;-78
2023/08/26 06:54:28;;;;;;;9.23;5.88;;;15.40;99.90;;;;;;5101996;28;20481;-79
2023/08/26 06:56:53;;;;;;;10.73;7.20;;;15.30;99.90;;;;;;5098627;28;20400;-78
2023/08/26 06:59:19;;;;;;;13.65;8.43;;;15.70;99.90;;;;;;5115575;28;20408;-79
2023/08/26 07:01:45;;;;;;;12.90;9.00;;;15.30;99.90;;;;;;5115491;28;20444;-78
2023/08/26 07:04:12;;;;;;;13.07;9.70;;;15.70;99.90;;;;;;5096491;27;20418;-78
2023/08/26 07:06:37;;;;;;;17.27;11.32;;;15.60;99.90;;;;;;5111508;28;20960;-78
2023/08/26 07:09:04;;;;;;;18.47;12.07;;;15.90;99.90;;;;;;5077911;28;20477;-78
2023/08/26 07:11:30;;;;;;;18.55;13.23;;;15.90;99.90;;;;;;5095806;28;20398;-78
2023/08/26 07:13:56;;;;;;;20.30;13.25;;;16.30;99.90;;;;;;5078645;28;20398;-78
2023/08/26 07:16:22;;;;;;;17.70;14.30;;;16.60;99.90;;;;;;5078496;28;20961;-78
2023/08/26 07:18:47;;;;;;;22.45;14.85;;;16.60;99.90;;;;;;5101361;28;20408;-76
2023/08/26 07:21:15;;;;;;;27.02;15.60;;;16.90;99.90;;;;;;5103236;28;20409;-79
2023/08/26 07:23:41;;;;;;;22.45;15.40;;;16.80;99.90;;;;;;5111558;28;20459;-77
2023/08/26 07:26:07;;;;;;;21.75;16.00;;;16.60;99.90;;;;;;5078311;28;20620;-77
2023/08/26 07:28:32;;;;;;;20.50;15.30;;;16.60;99.90;;;;;;5111408;28;20394;-78
2023/08/26 07:31:02;;;;;;;22.05;15.82;;;16.60;99.90;;;;;;5095126;28;20394;-77
2023/08/26 07:33:29;;;;;;;20.67;14.50;;;16.90;99.90;;;;;;5133656;27;20478;-77
2023/08/26 07:36:09;;;;;;;24.33;15.20;;;16.80;99.90;;;;;;5120952;27;20420;-78
2023/08/26 07:38:37;;;;;;;19.08;13.75;;;16.80;99.90;;;;;;5147615;27;20492;-79
2023/08/26 07:41:02;;;;;;;17.85;13.98;;;16.90;99.90;;;;;;5149335;27;20521;-77
2023/08/26 07:43:28;;;;;;;19.50;14.45;;;17.00;99.90;;;;;;5114914;28;20452;-77
2023/08/26 07:45:54;;;;;;;17.30;14.55;;;17.60;99.90;;;;;;5097557;28;20436;-78
2023/08/26 07:48:20;;;;;;;22.00;14.17;;;17.40;99.90;;;;;;5097348;28;20472;-77
2023/08/26 07:50:45;;;;;;;18.63;14.07;;;17.60;99.90;;;;;;5094324;28;20408;-79
2023/08/26 07:53:11;;;;;;;20.02;14.27;;;17.60;99.90;;;;;;5097897;28;20400;-79
2023/08/26 07:55:37;;;;;;;20.27;13.50;;;17.30;99.90;;;;;;5097795;28;20448;-79
2023/08/26 07:58:05;;;;;;;16.05;12.82;;;17.70;99.90;;;;;;5097980;28;20401;-79
2023/08/26 08:00:31;;;;;;;13.98;11.93;;;17.90;99.90;;;;;;5114406;28;20756;-78
2023/08/26 08:02:57;;;;;;;15.45;12.55;;;18.10;99.90;;;;;;5148087;27;20420;-78
2023/08/26 08:05:22;;;;;;;16.00;12.10;;;18.30;99.90;;;;;;5076956;28;20429;-78
2023/08/26 08:07:48;;;;;;;15.73;12.10;;;17.90;99.90;;;;;;5077162;28;20485;-78
2023/08/26 08:10:14;;;;;;;14.33;12.30;;;18.00;99.90;;;;;;5105380;27;20419;-78
2023/08/26 08:12:40;;;;;;;14.90;12.23;;;17.80;99.90;;;;;;5148416;27;20431;-78
2023/08/26 08:15:07;;;;;;;15.40;11.70;;;18.20;99.90;;;;;;5097052;28;20400;-78
2023/08/26 08:17:32;;;;;;;17.73;12.35;;;18.10;99.90;;;;;;5131727;27;20396;-78
2023/08/26 08:19:58;;;;;;;15.43;11.55;;;18.00;99.90;;;;;;5096931;28;20756;-78
2023/08/26 08:22:36;;;;;;;17.70;12.15;;;18.20;99.90;;;;;;5114357;28;20768;-78
2023/08/26 08:25:02;;;;;;;16.98;11.93;;;18.60;99.90;;;;;;5146667;27;20501;-77
2023/08/26 08:27:30;;;;;;;18.83;12.70;;;18.50;99.90;;;;;;5148545;27;20397;-78
2023/08/26 08:29:57;;;;;;;16.03;12.10;;;18.30;99.90;;;;;;5148259;27;20404;-78
2023/08/26 08:32:23;;;;;;;14.77;11.57;;;18.30;99.90;;;;;;5147247;27;20417;-78
2023/08/26 08:34:48;;;;;;;17.65;12.68;;;18.40;99.90;;;;;;5094824;28;20415;-78
2023/08/26 08:37:14;;;;;;;14.98;12.25;;;18.10;99.90;;;;;;5079352;28;20767;-78
2023/08/26 08:39:40;;;;;;;14.57;12.07;;;18.30;99.90;;;;;;5096944;28;20407;-78
2023/08/26 08:42:13;;;;;;;18.17;12.60;;;18.10;99.90;;;;;;5095884;28;20419;-77
2023/08/26 08:44:41;;;;;;;14.88;12.80;;;18.10;99.90;;;;;;5112179;28;20891;-77
2023/08/26 08:47:08;;;;;;;17.33;12.60;;;18.30;99.90;;;;;;5094546;28;20958;-77
2023/08/26 08:49:34;;;;;;;18.60;13.40;;;18.50;99.90;;;;;;5092887;28;20473;-79
2023/08/26 08:52:04;;;;;;;19.00;13.07;;;18.10;99.90;;;;;;5092649;28;20405;-77
2023/08/26 08:54:32;;;;;;;17.08;13.27;;;18.00;99.90;;;;;;5059048;28;20893;-77
2023/08/26 08:56:58;;;;;;;18.83;13.25;;;18.10;99.90;;;;;;5109835;27;20528;-77
2023/08/26 08:59:25;;;;;;;17.70;12.40;;;18.10;99.90;;;;;;5092364;28;20417;-77
2023/08/26 09:01:55;;;;;;;14.27;11.85;;;18.00;99.90;;;;;;5123621;27;20412;-77
2023/08/26 09:04:21;;;;;;;15.93;11.90;;;18.60;99.90;;;;;;5078516;28;20894;-77
2023/08/26 09:06:48;;;;;;;14.18;11.57;;;19.30;99.90;;;;;;5096481;28;20384;-77
2023/08/26 09:09:18;;;;;;;14.48;11.02;;;18.40;99.90;;;;;;5096214;28;20410;-80
2023/08/26 09:11:44;;;;;;;14.40;10.27;;;18.60;99.90;;;;;;5147653;27;20404;-77
2023/08/26 09:14:09;;;;;;;13.80;10.57;;;19.20;99.90;;;;;;5108853;28;20412;-77
2023/08/26 09:16:37;;;;;;;12.57;9.70;;;19.30;99.90;;;;;;5130334;27;20400;-77
2023/08/26 09:19:07;;;;;;;14.35;8.77;;;19.80;99.90;;;;;;5114991;28;20400;-77
2023/08/26 09:21:33;;;;;;;10.60;8.23;;;19.80;99.90;;;;;;5114746;28;20404;-77
2023/08/26 09:24:00;;;;;;;14.00;8.98;;;20.20;99.90;;;;;;5096348;28;20392;-77
2023/08/26 09:26:27;;;;;;;16.00;9.07;;;20.30;99.90;;;;;;5112152;28;21370;-77
2023/08/26 09:28:53;;;;;;;14.33;9.53;;;20.60;99.90;;;;;;5078569;28;20418;-77
2023/08/26 09:31:20;;;;;;;12.63;9.33;;;20.50;99.90;;;;;;5111194;28;20446;-84
2023/08/26 09:34:12;;;;;;;13.65;9.77;;;20.50;99.90;;;;;;5095481;28;20467;-82
2023/08/26 09:36:42;;;;;;;12.57;9.98;;;20.20;99.90;;;;;;5058001;28;20420;-84
2023/08/26 09:39:15;;;;;;;14.13;10.13;;;20.20;99.90;;;;;;5094042;28;20435;-82
2023/08/26 09:41:45;;;;;;;12.05;9.80;;;20.40;99.90;;;;;;5097262;28;20487;-84
2023/08/26 09:44:12;;;;;;;15.40;10.02;;;20.70;99.90;;;;;;5113031;28;20416;-83
2023/08/26 09:46:39;;;;;;;13.23;8.73;;;20.60;99.90;;;;;;5114206;28;20392;-83
2023/08/26 09:49:06;;;;;;;13.95;9.38;;;20.30;99.90;;;;;;5113851;28;20914;-83
2023/08/26 09:51:32;;;;;;;13.45;8.43;;;20.40;99.90;;;;;;5096691;28;20481;-83
2023/08/26 09:53:59;;;;;;;12.13;7.97;;;20.50;99.90;;;;;;5113621;28;20393;-83
2023/08/26 09:56:28;;;;;;;11.57;7.55;;;20.20;99.90;;;;;;5110746;28;20407;-83
2023/08/26 09:58:55;;;;;;;9.50;6.95;;;20.00;99.90;;;;;;5110079;28;20442;-83
2023/08/26 10:01:23;;;;;;;8.02;3.60;;;19.90;99.90;;;;;;5077387;28;20394;-84
2023/08/26 10:03:59;;;;;;;16.65;4.70;;;19.30;99.90;;;;;;5094070;28;20399;-82
2023/08/26 10:06:28;;;;;;;13.90;5.88;;;18.10;99.90;;;;;;5076259;28;20448;-82
2023/08/26 10:09:05;;;;;;;12.17;5.00;;;17.00;99.90;;;;;;5076595;28;20460;-81
2023/08/26 10:11:40;;;;;;;8.98;5.05;;;16.40;99.90;;;;;;5107835;28;20968;-83
2023/08/26 10:14:14;;;;;;;9.45;4.80;;;15.80;99.90;;;;;;5113813;28;20816;-82
2023/08/26 10:16:42;;;;;;;8.53;5.00;;;15.40;99.90;;;;;;5096844;28;20388;-82
2023/08/26 10:19:08;;;;;;;9.68;4.60;;;15.40;99.90;;;;;;5113764;28;20388;-82
2023/08/26 10:21:35;;;;;;;7.60;4.45;;;15.10;99.90;;;;;;5113134;28;20403;-81
2023/08/26 10:24:01;;;;;;;8.52;4.38;;;15.30;99.90;;;;;;5094271;28;20419;-81
2023/08/26 10:26:27;;;;;;;5.35;3.88;;;15.30;99.90;;;;;;5095317;28;20393;-83
2023/08/26 10:28:55;;;;;;;4.45;3.70;;;15.40;99.90;;;;;;5112872;28;20418;-83
2023/08/26 10:31:21;;;;;;;5.47;3.60;;;15.10;99.90;;;;;;5113156;28;20396;-82
2023/08/26 10:34:06;;;;;;;6.65;3.88;;;15.40;99.90;;;;;;5095409;28;20444;-83
2023/08/26 10:36:34;;;;;;;4.90;3.30;;;15.20;99.90;;;;;;5113782;28;20403;-83
2023/08/26 10:39:01;;;;;;;4.13;2.75;;;15.70;99.90;;;;;;5079311;28;20420;-83
2023/08/26 10:41:26;;;;;;;5.45;3.20;;;15.90;99.90;;;;;;5114675;28;20412;-84
2023/08/26 10:43:58;;;;;;;5.80;3.40;;;15.50;99.90;;;;;;5097927;28;20404;-83
2023/08/26 10:46:36;;;;;;;6.15;3.95;;;16.20;99.90;;;;;;5117856;28;20392;-84
2023/08/26 10:49:03;;;;;;;8.50;4.80;;;16.50;99.90;;;;;;5096758;28;20400;-84
2023/08/26 10:51:29;;;;;;;6.75;5.35;;;16.10;99.90;;;;;;5102092;28;20425;-83
2023/08/26 10:54:03;;;;;;;9.50;6.18;;;16.80;99.90;;;;;;5111237;28;20434;-84
2023/08/26 10:56:33;;;;;;;8.52;6.75;;;16.80;99.90;;;;;;5097121;28;20478;-83
2023/08/26 10:59:03;;;;;;;11.13;8.20;;;16.80;99.90;;;;;;5114671;28;20400;-82
2023/08/26 11:01:35;;;;;;;13.90;8.45;;;16.70;99.90;;;;;;5113620;28;20376;-82
2023/08/26 11:04:01;;;;;;;10.73;8.52;;;16.50;99.90;;;;;;5112999;28;20407;-82
2023/08/26 11:06:28;;;;;;;12.55;9.50;;;16.70;99.90;;;;;;5123504;28;20406;-83
2023/08/26 11:08:55;;;;;;;18.45;11.30;;;17.00;99.90;;;;;;5094445;28;20738;-82
2023/08/26 11:11:21;;;;;;;11.98;9.68;;;17.20;99.90;;;;;;5112694;28;20402;-82
2023/08/26 11:13:47;;;;;;;13.88;9.15;;;17.10;99.90;;;;;;5095770;28;20412;-82
2023/08/26 11:16:14;;;;;;;10.98;9.25;;;17.60;99.90;;;;;;5096706;28;20447;-82
2023/08/26 11:18:42;;;;;;;10.88;8.57;;;17.90;99.90;;;;;;5099846;28;20825;-83
2023/08/26 11:21:08;;;;;;;14.05;8.63;;;17.40;99.90;;;;;;5133999;27;20462;-83
2023/08/26 11:23:34;;;;;;;13.30;8.87;;;17.70;99.90;;;;;;5115877;28;20420;-83
2023/08/26 11:26:00;;;;;;;12.48;8.05;;;17.50;99.90;;;;;;5116793;28;20932;-82
2023/08/26 11:28:27;;;;;;;12.15;8.65;;;17.50;99.90;;;;;;5116659;28;20396;-82
2023/08/26 11:30:53;;;;;;;9.30;7.45;;;17.70;99.90;;;;;;5117635;28;20724;-82
2023/08/26 11:33:21;;;;;;;9.50;7.40;;;18.00;99.90;;;;;;5097504;28;20428;-82
2023/08/26 11:35:49;;;;;;;11.35;7.07;;;18.00;99.90;;;;;;5112515;28;20529;-83
2023/08/26 11:38:16;;;;;;;9.30;6.72;;;18.30;99.90;;;;;;5115353;28;20411;-82
2023/08/26 11:40:42;;;;;;;8.93;5.60;;;18.40;99.90;;;;;;5098252;28;20439;-83
2023/08/26 11:43:09;;;;;;;8.63;5.78;;;18.30;99.90;;;;;;5116206;28;20420;-82
2023/08/26 11:45:36;;;;;;;7.50;5.10;;;18.60;99.90;;;;;;5099234;28;20915;-83
2023/08/26 11:48:03;;;;;;;6.18;4.03;;;18.40;99.90;;;;;;5096018;28;20621;-82
2023/08/26 11:50:30;;;;;;;6.68;4.22;;;18.60;99.90;;;;;;5096612;28;20447;-83
2023/08/26 11:52:56;;;;;;;5.47;4.10;;;18.40;99.90;;;;;;5113789;28;20394;-83
2023/08/26 11:55:22;;;;;;;5.35;4.20;;;18.50;99.90;;;;;;5096803;28;20432;-82
2023/08/26 11:57:53;;;;;;;6.47;4.70;;;18.70;99.90;;;;;;5113735;28;20397;-83
2023/08/26 12:00:19;;;;;;;7.80;4.10;;;18.80;99.90;;;;;;5130923;27;20420;-83
2023/08/26 12:02:46;;;;;;;5.70;3.70;;;18.90;99.90;;;;;;5080338;28;20426;-83
2023/08/26 12:05:14;;;;;;;7.85;4.32;;;18.70;99.90;;;;;;5096076;28;20730;-82
2023/08/26 12:07:48;;;;;;;5.38;4.55;;;19.20;99.90;;;;;;5094866;28;20416;-83
2023/08/26 12:10:17;;;;;;;5.72;4.40;;;19.20;99.90;;;;;;5111444;28;20434;-83
2023/08/26 12:12:45;;;;;;;6.22;4.10;;;19.30;99.90;;;;;;5095249;28;20440;-81
2023/08/26 12:15:13;;;;;;;5.53;4.20;;;19.30;99.90;;;;;;5090364;28;20413;-82
2023/08/26 12:18:09;;;;;;;5.35;3.60;;;19.50;99.90;;;;;;5087467;28;20495;-82
2023/08/26 12:20:36;;;;;;;5.57;3.58;;;19.40;99.90;;;;;;5081828;28;20485;-81
2023/08/26 12:23:04;;;;;;;6.57;3.08;;;19.00;99.90;;;;;;5128723;27;20788;-82
2023/08/26 12:25:35;;;;;;;3.50;2.88;;;19.20;99.90;;;;;;5130063;27;20413;-81
2023/08/26 12:28:08;;;;;;;4.40;3.03;;;19.30;99.90;;;;;;5130569;27;20425;-82
2023/08/26 12:30:34;;;;;;;5.40;3.00;;;19.50;99.90;;;;;;5123507;28;20406;-81
2023/08/26 12:33:00;;;;;;;4.32;2.47;;;19.60;99.90;;;;;;5135961;27;20445;-81
2023/08/26 12:35:26;;;;;;;3.63;2.17;;;19.30;99.90;;;;;;5105630;28;20417;-82